EDT,Max TemperatureF,Mean TemperatureF,Min TemperatureF,Max Dew PointF,MeanDew PointF,Min DewpointF,Max Humidity, Mean Humidity, Min Humidity, Max Sea Level PressureIn, Mean Sea Level PressureIn, Min Sea Level PressureIn, Max VisibilityMiles, Mean VisibilityMiles, Min VisibilityMiles, Max Wind SpeedMPH, Mean Wind SpeedMPH, Max Gust SpeedMPH,PrecipitationIn, CloudCover, Events, WindDirDegrees
2013-10-1,77,62,47,59,52,46,96,71,46,30.01,29.94,29.87,10,10,8,8,1,10,0.00,1,,188
2013-10-2,80,66,52,59,53,46,96,67,37,29.97,29.88,29.83,10,10,7,14,6,18,0.00,3,,221
2013-10-3,72,60,47,52,48,45,96,69,41,30.12,30.06,29.99,10,10,10,8,1,12,0.00,0,,315
2013-10-4,64,56,47,53,49,45,93,80,67,30.12,30.08,30.06,10,10,10,9,3,12,0.00,5,,339
2013-10-5,67,59,50,51,47,41,86,64,42,30.16,30.12,30.09,10,10,10,12,4,14,0.01,6,,331
2013-10-6,61,56,50,53,49,42,93,77,61,30.15,30.08,29.99,10,9,2,12,5,21,0.28,8,Rain,135
2013-10-7,80,68,55,64,58,49,93,74,54,29.97,29.76,29.58,10,7,1,29,9,41,1.12,7,Rain,214
2013-10-8,62,52,41,49,39,34,89,63,36,30.39,30.22,29.91,10,10,10,17,6,23,0.00,3,,331
2013-10-9,66,52,37,42,38,33,92,62,31,30.47,30.41,30.34,10,10,10,14,3,18,0.00,0,,167
2013-10-10,66,53,40,48,42,38,92,68,44,30.35,30.28,30.19,10,10,10,6,1,8,0.00,0,,48
2013-10-11,70,57,43,48,45,41,96,67,37,30.20,30.17,30.14,10,10,10,8,2,10,0.00,1,,4
2013-10-12,74,58,42,52,47,41,96,70,44,30.34,30.27,30.19,10,10,10,10,3,15,0.00,0,,188
2013-10-13,70,59,47,48,47,43,93,68,42,30.40,30.34,30.28,10,10,10,17,8,21,0.00,1,,169
2013-10-14,60,55,50,54,51,47,100,80,60,30.31,30.28,30.25,10,7,0,16,6,22,0.12,8,Fog-Rain,187
2013-10-15,64,56,48,54,50,48,100,86,72,30.29,30.24,30.09,10,4,0,10,2,13,0.00,6,Fog,89
2013-10-16,66,59,52,53,51,49,86,71,56,30.08,29.95,29.79,10,10,10,23,12,31,0.04,4,Rain,178
2013-10-17,69,61,53,55,51,46,93,69,45,29.83,29.78,29.69,10,10,7,17,5,26,0.29,6,Rain,170
2013-10-18,64,57,50,53,46,34,96,68,40,29.89,29.72,29.61,10,9,2,20,8,28,0.40,7,Rain,253
2013-10-19,61,54,47,47,41,38,83,65,47,29.90,29.81,29.64,10,10,9,22,10,29,0.06,4,Rain,181
2013-10-20,59,50,40,47,36,30,83,60,36,29.99,29.81,29.62,10,10,10,20,8,28,T,5,,246
2013-10-21,63,50,36,41,38,34,92,67,42,30.06,29.97,29.84,10,10,10,22,9,31,0.00,2,,171
2013-10-22,58,50,41,46,37,27,86,65,44,29.83,29.75,29.69,10,10,5,23,10,31,0.02,5,Rain,207
2013-10-23,53,46,38,34,31,28,79,59,38,29.77,29.70,29.62,10,10,10,14,4,17,T,5,,238
2013-10-24,45,39,32,36,31,22,75,64,52,30.42,30.32,29.68,10,10,7,16,8,23,0.02,8,Rain,262
2013-10-25,45,39,32,32,29,24,70,58,45,30.42,30.32,29.90,10,10,10,15,8,20,T,8,,296
2013-10-26,47,39,31,36,31,26,85,72,58,30.12,29.92,29.78,10,10,10,23,11,31,0.02,7,Rain,185
2013-10-27,48,42,35,37,31,27,76,63,49,30.02,29.87,29.74,10,10,10,18,8,24,T,6,Rain,243
2013-10-28,48,38,27,37,29,19,78,59,40,30.41,30.17,29.99,10,10,10,28,10,35,0.01,5,Rain,257
2013-10-29,44,33,22,26,22,19,88,64,39,30.50,30.43,30.35,10,10,10,9,1,12,0.00,1,,298
2013-10-30,44,37,29,33,29,23,89,76,62,30.33,30.26,30.20,10,10,10,9,3,13,0.00,7,,181
2013-10-31,61,48,34,57,46,31,93,85,76,30.21,29.90,29.58,10,8,3,26,14,36,0.20,7,Rain,179